createdAt,value
2022-12-02T00:01:13.966Z,91722.44
2022-12-02T00:03:40.995Z,91726.09
2022-12-02T00:06:15.955Z,91724.03
2022-12-02T00:08:42.666Z,91726.59
2022-12-02T00:11:26.964Z,91725.31
2022-12-02T00:13:53.547Z,91732.31
2022-12-02T00:16:21.649Z,91731.56
2022-12-02T00:18:48.764Z,91731.31
2022-12-02T00:21:15.516Z,91727.13
2022-12-02T00:23:42.201Z,91725.03
2022-12-02T00:26:08.879Z,91727.63
2022-12-02T00:28:35.664Z,91726.59
2022-12-02T00:31:02.302Z,91728.13
2022-12-02T00:33:28.994Z,91723.97
2022-12-02T00:35:55.637Z,91725.56
2022-12-02T00:38:22.313Z,91731.78
2022-12-02T00:40:49.135Z,91728.69
2022-12-02T00:43:34.451Z,91718.28
2022-12-02T00:46:19.821Z,91723.50
2022-12-02T00:48:46.657Z,91722.44
2022-12-02T00:51:13.282Z,91718.78
2022-12-02T00:53:40.036Z,91719.84
2022-12-02T00:56:06.911Z,91717.53
2022-12-02T00:58:33.652Z,91717.78
2022-12-02T01:01:00.372Z,91717.78
2022-12-02T01:03:27.094Z,91712.06
2022-12-02T01:05:53.736Z,91711.03
2022-12-02T01:08:22.740Z,91709.22
2022-12-02T01:10:49.357Z,91704.78
2022-12-02T01:13:16.434Z,91706.31
2022-12-02T01:15:43.087Z,91706.38
2022-12-02T01:18:09.762Z,91711.00
2022-12-02T01:20:36.382Z,91709.47
2022-12-02T01:23:03.100Z,91702.97
2022-12-02T01:25:29.817Z,91710.00
2022-12-02T01:27:56.568Z,91702.16
2022-12-02T01:30:23.214Z,91704.25
2022-12-02T01:32:49.870Z,91702.97
2022-12-02T01:35:17.276Z,91693.13
2022-12-02T01:37:43.901Z,91708.19
2022-12-02T01:40:11.196Z,91700.88
2022-12-02T01:42:38.297Z,91703.25
2022-12-02T01:45:05.460Z,91710.53
2022-12-02T01:47:32.085Z,91701.66
2022-12-02T01:49:58.689Z,91700.88
2022-12-02T01:52:25.444Z,91706.59
2022-12-02T01:54:52.306Z,91707.38
2022-12-02T01:57:22.466Z,91716.19
2022-12-02T01:59:49.090Z,91713.59
2022-12-02T02:02:27.888Z,91711.50
2022-12-02T02:04:56.661Z,91707.09
2022-12-02T02:07:23.349Z,91709.44
2022-12-02T02:09:49.994Z,91708.91
2022-12-02T02:12:16.759Z,91708.41
2022-12-02T02:14:43.601Z,91715.72
2022-12-02T02:17:10.347Z,91712.56
2022-12-02T02:19:37.054Z,91715.16
2022-12-02T02:22:06.437Z,91724.22
2022-12-02T02:24:33.039Z,91717.22
2022-12-02T02:26:59.725Z,91710.22
2022-12-02T02:29:26.405Z,91712.59
2022-12-02T02:31:52.951Z,91705.56
2022-12-02T02:34:19.691Z,91703.25
2022-12-02T02:36:46.358Z,91714.38
2022-12-02T02:39:13.024Z,91716.25
2022-12-02T02:41:39.760Z,91703.50
2022-12-02T02:44:06.326Z,91720.38
2022-12-02T02:46:33.007Z,91725.03
2022-12-02T02:48:59.825Z,91719.06
2022-12-02T02:51:26.443Z,91718.81
2022-12-02T02:53:53.084Z,91712.06
2022-12-02T02:56:19.945Z,91713.34
2022-12-02T02:58:46.727Z,91719.59
2022-12-02T03:01:33.578Z,91720.91
2022-12-02T03:04:02.831Z,91727.38
2022-12-02T03:06:30.486Z,91727.66
2022-12-02T03:08:57.268Z,91719.09
2022-12-02T03:11:24.221Z,91726.59
2022-12-02T03:13:50.892Z,91727.13
2022-12-02T03:16:19.374Z,91725.81
2022-12-02T03:18:46.161Z,91731.00
2022-12-02T03:21:14.369Z,91735.69
2022-12-02T03:23:41.049Z,91740.66
2022-12-02T03:26:07.744Z,91744.50
2022-12-02T03:28:34.463Z,91740.09
2022-12-02T03:31:01.258Z,91744.25
2022-12-02T03:33:28.090Z,91741.63
2022-12-02T03:35:54.657Z,91751.78
2022-12-02T03:38:21.326Z,91740.59
2022-12-02T03:40:48.168Z,91739.59
2022-12-02T03:43:14.883Z,91743.72
2022-12-02T03:45:43.365Z,91741.41
2022-12-02T03:48:10.180Z,91733.63
2022-12-02T03:50:36.914Z,91737.78
2022-12-02T03:53:03.545Z,91735.94
2022-12-02T03:55:30.209Z,91741.41
2022-12-02T03:58:03.353Z,91742.19
2022-12-02T04:00:29.979Z,91747.88
2022-12-02T04:02:56.699Z,91749.94
2022-12-02T04:05:23.450Z,91749.09
2022-12-02T04:07:50.107Z,91753.50
2022-12-02T04:10:16.834Z,91760.69
2022-12-02T04:12:43.479Z,91758.59
2022-12-02T04:15:10.608Z,91761.72
2022-12-02T04:17:37.455Z,91757.59
2022-12-02T04:20:05.328Z,91760.22
2022-12-02T04:22:32.069Z,91758.84
2022-12-02T04:24:59.802Z,91765.59
2022-12-02T04:27:26.692Z,91762.72
2022-12-02T04:29:53.306Z,91766.63
2022-12-02T04:32:19.986Z,91765.03
2022-12-02T04:34:46.703Z,91769.97
2022-12-02T04:37:13.295Z,91768.63
2022-12-02T04:39:39.948Z,91767.84
2022-12-02T04:42:06.586Z,91776.09
2022-12-02T04:44:33.272Z,91768.88
2022-12-02T04:47:00.067Z,91772.47
2022-12-02T04:49:26.743Z,91776.66
2022-12-02T04:51:53.408Z,91783.72
2022-12-02T04:54:20.104Z,91780.34
2022-12-02T04:56:46.775Z,91778.19
2022-12-02T04:59:13.474Z,91780.25
2022-12-02T05:01:40.252Z,91784.19
2022-12-02T05:04:06.857Z,91791.75
2022-12-02T05:06:33.585Z,91785.78
2022-12-02T05:09:00.283Z,91793.31
2022-12-02T05:11:27.732Z,91802.34
2022-12-02T05:13:56.395Z,91797.94
2022-12-02T05:16:23.278Z,91794.81
2022-12-02T05:18:50.049Z,91802.69
2022-12-02T05:21:16.798Z,91801.66
2022-12-02T05:23:43.409Z,91798.06
2022-12-02T05:26:10.016Z,91799.53
2022-12-02T05:28:36.703Z,91797.50
2022-12-02T05:31:03.551Z,91801.66
2022-12-02T05:33:30.276Z,91805.84
2022-12-02T05:35:56.972Z,91801.69
2022-12-02T05:38:23.683Z,91803.28
2022-12-02T05:40:55.503Z,91806.56
2022-12-02T05:43:23.820Z,91800.34
2022-12-02T05:45:50.674Z,91806.88
2022-12-02T05:48:18.498Z,91812.44
2022-12-02T05:50:45.529Z,91813.00
2022-12-02T05:53:35.382Z,91817.78
2022-12-02T05:56:01.988Z,91823.97
2022-12-02T05:58:28.579Z,91822.41
2022-12-02T06:00:56.870Z,91826.84
2022-12-02T06:03:23.831Z,91826.91
2022-12-02T06:05:50.688Z,91834.00
2022-12-02T06:08:24.721Z,91831.09
2022-12-02T06:10:52.077Z,91829.50
2022-12-02T06:13:20.775Z,91829.53
2022-12-02T06:15:47.501Z,91842.28
2022-12-02T06:18:19.135Z,91846.97
2022-12-02T06:20:46.948Z,91838.44
2022-12-02T06:23:18.581Z,91849.88
2022-12-02T06:25:45.448Z,91838.25
2022-12-02T06:28:31.268Z,91848.38
2022-12-02T06:31:00.126Z,91849.88
2022-12-02T06:33:30.254Z,91855.16
2022-12-02T06:35:57.363Z,91850.75
2022-12-02T06:38:31.022Z,91858.31
2022-12-02T06:40:59.843Z,91859.25
2022-12-02T06:43:29.187Z,91866.06
2022-12-02T06:45:55.966Z,91864.03
2022-12-02T06:48:26.462Z,91857.38
2022-12-02T06:50:53.162Z,91858.34
2022-12-02T06:53:34.027Z,91860.13
2022-12-02T06:56:06.606Z,91857.19
2022-12-02T06:58:35.854Z,91857.56
2022-12-02T07:01:18.096Z,91856.09
2022-12-02T07:04:05.082Z,91856.94
2022-12-02T07:06:32.098Z,91858.53
2022-12-02T07:09:38.063Z,91860.03
2022-12-02T07:12:31.982Z,91860.09
2022-12-02T07:15:00.076Z,91865.31
2022-12-02T07:17:35.571Z,91859.59
2022-12-02T07:20:06.399Z,91862.69
2022-12-02T07:22:37.198Z,91867.16
2022-12-02T07:25:09.984Z,91867.75
2022-12-02T07:27:41.706Z,91869.06
2022-12-02T07:30:25.766Z,91880.78
2022-12-02T07:32:52.611Z,91880.31
2022-12-02T07:35:19.840Z,91877.25
2022-12-02T07:37:46.628Z,91872.69
2022-12-02T07:40:14.386Z,91876.84
2022-12-02T07:42:41.275Z,91883.63
2022-12-02T07:45:08.553Z,91882.56
2022-12-02T07:47:35.224Z,91885.19
2022-12-02T07:50:01.923Z,91882.47
2022-12-02T07:52:28.632Z,91884.81
2022-12-02T07:54:55.238Z,91892.72
2022-12-02T07:57:22.503Z,91902.13
2022-12-02T07:59:49.129Z,91900.25
2022-12-02T08:02:15.860Z,91899.78
2022-12-02T08:04:42.678Z,91891.41
2022-12-02T08:07:09.319Z,91896.91
2022-12-02T08:09:35.959Z,91893.56
2022-12-02T08:12:02.707Z,91893.59
2022-12-02T08:14:29.386Z,91890.53
2022-12-02T08:16:56.060Z,91893.63
2022-12-02T08:19:22.963Z,91894.94
2022-12-02T08:21:49.951Z,91902.75
2022-12-02T08:24:16.744Z,91898.84
2022-12-02T08:26:44.941Z,91896.75
2022-12-02T08:29:11.564Z,91899.38
2022-12-02T08:31:38.226Z,91909.78
2022-12-02T08:34:07.314Z,91906.13
2022-12-02T08:36:34.680Z,91908.75
2022-12-02T08:39:05.866Z,91911.88
2022-12-02T08:41:34.060Z,91917.56
2022-12-02T08:44:00.650Z,91908.72
2022-12-02T08:46:30.375Z,91904.84
2022-12-02T08:48:57.280Z,91903.53
2022-12-02T08:51:23.959Z,91898.84
2022-12-02T08:53:50.623Z,91904.56
2022-12-02T08:56:17.315Z,91905.34
2022-12-02T08:58:44.001Z,91899.28
2022-12-02T09:01:10.736Z,91897.97
2022-12-02T09:03:37.410Z,91901.28
2022-12-02T09:06:04.439Z,91902.81
2022-12-02T09:08:31.240Z,91904.44
2022-12-02T09:10:57.921Z,91907.56
2022-12-02T09:13:24.655Z,91903.16
2022-12-02T09:15:51.340Z,91912.31
2022-12-02T09:18:18.075Z,91902.13
2022-12-02T09:20:44.768Z,91899.44
2022-12-02T09:23:11.431Z,91900.94
2022-12-02T09:25:38.137Z,91899.22
2022-12-02T09:28:04.870Z,91900.25
2022-12-02T09:30:31.606Z,91895.41
2022-12-02T09:32:58.235Z,91898.59
2022-12-02T09:35:24.873Z,91893.31
2022-12-02T09:37:51.552Z,91898.81
2022-12-02T09:40:18.500Z,91899.56
2022-12-02T09:42:45.272Z,91895.41
2022-12-02T09:45:12.480Z,91890.56
2022-12-02T09:47:39.447Z,91883.72
2022-12-02T09:50:06.805Z,91886.81
2022-12-02T09:52:33.603Z,91884.84
2022-12-02T09:55:00.791Z,91884.47
2022-12-02T09:57:38.652Z,91879.72
2022-12-02T10:00:15.250Z,91875.59
2022-12-02T10:02:44.590Z,91878.06
2022-12-02T10:05:24.630Z,91877.44
2022-12-02T10:07:52.527Z,91868.75
2022-12-02T10:10:31.969Z,91871.44
2022-12-02T10:13:01.776Z,91876.13
2022-12-02T10:15:32.521Z,91869.53
2022-12-02T10:18:01.897Z,91870.22
2022-12-02T10:20:28.646Z,91867.97
2022-12-02T10:23:17.563Z,91867.22
2022-12-02T10:25:52.997Z,91864.03
2022-12-02T10:28:28.392Z,91865.72
2022-12-02T10:31:08.092Z,91863.00
2022-12-02T10:33:37.357Z,91863.19
2022-12-02T10:36:04.275Z,91871.84
2022-12-02T10:38:33.342Z,91860.16
2022-12-02T10:41:15.459Z,91855.81
2022-12-02T10:43:43.038Z,91857.97
2022-12-02T10:46:14.367Z,91858.97
2022-12-02T10:48:41.710Z,91853.06
2022-12-02T10:51:15.687Z,91856.22
2022-12-02T10:53:42.609Z,91854.97
2022-12-02T10:56:15.419Z,91850.09
2022-12-02T10:58:42.176Z,91852.78
2022-12-02T11:01:10.166Z,91858.00
2022-12-02T11:03:36.802Z,91854.94
2022-12-02T11:06:05.539Z,91851.63
2022-12-02T11:08:32.210Z,91854.31
2022-12-02T11:11:15.072Z,91844.44
2022-12-02T11:13:55.032Z,91861.22
2022-12-02T11:16:27.750Z,91860.09
2022-12-02T11:19:09.522Z,91859.19
2022-12-02T11:21:37.415Z,91858.78
2022-12-02T11:24:22.295Z,91860.94
2022-12-02T11:27:03.906Z,91870.84
2022-12-02T11:29:35.020Z,91865.59
2022-12-02T11:32:20.500Z,91873.50
2022-12-02T11:35:16.490Z,91870.97
2022-12-02T11:37:45.640Z,91875.28
2022-12-02T11:40:13.408Z,91870.84
2022-12-02T11:42:40.783Z,91870.22
2022-12-02T11:45:16.610Z,91871.25
2022-12-02T11:48:03.406Z,91869.97
2022-12-02T11:50:33.115Z,91873.50
2022-12-02T11:53:03.676Z,91867.41
2022-12-02T11:55:40.518Z,91870.47
2022-12-02T11:58:32.879Z,91867.00
2022-12-02T12:01:06.657Z,91865.28
2022-12-02T12:03:33.869Z,91873.00
2022-12-02T12:06:20.161Z,91863.19
2022-12-02T12:08:49.335Z,91864.53
2022-12-02T12:11:37.350Z,91865.41
2022-12-02T12:14:13.079Z,91871.25
2022-12-02T12:16:46.506Z,91868.44
2022-12-02T12:19:13.165Z,91868.59
2022-12-02T12:21:42.211Z,91873.72
2022-12-02T12:24:17.764Z,91877.44
2022-12-02T12:26:48.056Z,91877.22
2022-12-02T12:29:14.825Z,91884.72
2022-12-02T12:31:41.713Z,91891.09
2022-12-02T12:34:08.624Z,91883.78
2022-12-02T12:36:35.726Z,91876.22
2022-12-02T12:39:02.799Z,91882.97
2022-12-02T12:41:58.531Z,91884.53
2022-12-02T12:44:16.012Z,91896.28
2022-12-02T12:46:42.726Z,91886.47
2022-12-02T12:49:09.870Z,91889.59
2022-12-02T12:51:36.741Z,91891.84
2022-12-02T12:54:03.454Z,91894.97
2022-12-02T12:56:30.197Z,91899.34
2022-12-02T12:58:56.948Z,91898.69
2022-12-02T13:01:25.186Z,91903.72
2022-12-02T13:03:52.401Z,91897.50
2022-12-02T13:06:20.726Z,91905.00
2022-12-02T13:08:47.396Z,91908.19
2022-12-02T13:11:14.115Z,91905.75
2022-12-02T13:13:40.790Z,91903.28
2022-12-02T13:16:07.724Z,91903.91
2022-12-02T13:18:34.537Z,91904.06
2022-12-02T13:21:01.229Z,91902.75
2022-12-02T13:23:27.846Z,91901.97
2022-12-02T13:25:54.479Z,91913.75
2022-12-02T13:28:21.279Z,91902.47
2022-12-02T13:30:48.419Z,91907.09
2022-12-02T13:33:15.135Z,91909.13
2022-12-02T13:35:41.711Z,91918.03
2022-12-02T13:38:08.417Z,91916.63
2022-12-02T13:40:35.037Z,91917.38
2022-12-02T13:43:01.762Z,91903.97
2022-12-02T13:45:30.323Z,91905.53
2022-12-02T13:47:56.991Z,91914.00
2022-12-02T13:50:23.663Z,91920.03
2022-12-02T13:52:51.128Z,91914.53
2022-12-02T13:55:17.945Z,91916.66
2022-12-02T13:57:44.597Z,91913.88
2022-12-02T14:00:12.554Z,91924.63
2022-12-02T14:02:39.118Z,91926.47
2022-12-02T14:05:08.206Z,91925.84
2022-12-02T14:07:35.506Z,91933.53
2022-12-02T14:10:02.444Z,91937.13
2022-12-02T14:12:29.083Z,91931.31
2022-12-02T14:14:55.702Z,91928.94
2022-12-02T14:17:22.404Z,91940.63
2022-12-02T14:19:49.026Z,91943.00
2022-12-02T14:22:15.726Z,91944.19
2022-12-02T14:24:48.404Z,91948.19
2022-12-02T14:27:15.743Z,91958.81
2022-12-02T14:29:42.360Z,91957.34
2022-12-02T14:32:09.194Z,91955.00
2022-12-02T14:34:35.893Z,91958.84
2022-12-02T14:37:02.502Z,91959.97
2022-12-02T14:39:29.240Z,91961.91
2022-12-02T14:41:55.837Z,91966.19
2022-12-02T14:44:22.816Z,91961.81
2022-12-02T14:46:49.663Z,91966.91
2022-12-02T14:49:39.524Z,91971.50
2022-12-02T14:52:03.054Z,91978.09
2022-12-02T14:54:29.625Z,91976.50
2022-12-02T14:56:56.298Z,91979.94
2022-12-02T14:59:22.902Z,91986.53
2022-12-02T15:01:49.603Z,91984.22
2022-12-02T15:04:16.363Z,91994.97
2022-12-02T15:06:44.602Z,91992.34
2022-12-02T15:09:11.328Z,91991.84
2022-12-02T15:11:38.080Z,91990.06
2022-12-02T15:14:04.767Z,91990.09
2022-12-02T15:16:31.551Z,91993.63
2022-12-02T15:18:58.307Z,91997.28
2022-12-02T15:21:25.013Z,91993.09
2022-12-02T15:23:51.685Z,92004.31
2022-12-02T15:26:18.366Z,92002.59
2022-12-02T15:28:45.061Z,92003.91
2022-12-02T15:31:12.373Z,92002.50
2022-12-02T15:33:39.100Z,92002.78
2022-12-02T15:36:05.866Z,92005.13
2022-12-02T15:38:33.318Z,92005.66
2022-12-02T15:41:00.464Z,92008.78
2022-12-02T15:43:27.172Z,92003.59
2022-12-02T15:45:53.869Z,92004.69
2022-12-02T15:48:20.709Z,92013.63
2022-12-02T15:50:51.680Z,92014.69
2022-12-02T15:53:20.022Z,92013.63
2022-12-02T15:55:46.670Z,92018.34
2022-12-02T15:58:13.287Z,92010.53
2022-12-02T16:00:39.977Z,92008.91
2022-12-02T16:03:06.813Z,92011.84
2022-12-02T16:05:33.492Z,92015.53
2022-12-02T16:08:00.300Z,92017.28
2022-12-02T16:10:27.030Z,92018.69
2022-12-02T16:12:54.097Z,92021.53
2022-12-02T16:15:20.747Z,92024.19
2022-12-02T16:17:47.351Z,92021.28
2022-12-02T16:20:14.224Z,92015.25
2022-12-02T16:22:40.984Z,92016.28
2022-12-02T16:25:07.907Z,92027.78
2022-12-02T16:27:34.652Z,92029.06
2022-12-02T16:30:01.277Z,92025.69
2022-12-02T16:32:27.897Z,92032.00
2022-12-02T16:34:54.797Z,92025.25
2022-12-02T16:37:22.784Z,92024.97
2022-12-02T16:39:49.806Z,92035.69
2022-12-02T16:42:16.679Z,92040.91
2022-12-02T16:44:43.319Z,92043.78
2022-12-02T16:47:10.038Z,92046.41
2022-12-02T16:49:36.752Z,92049.78
2022-12-02T16:52:03.378Z,92040.63
2022-12-02T16:54:30.152Z,92048.47
2022-12-02T16:56:56.801Z,92045.09
2022-12-02T16:59:24.090Z,92046.13
2022-12-02T17:01:50.884Z,92050.31
2022-12-02T17:04:17.629Z,92058.44
2022-12-02T17:06:45.593Z,92051.13
2022-12-02T17:09:12.635Z,92060.28
2022-12-02T17:11:39.727Z,92056.59
2022-12-02T17:14:06.332Z,92063.13
2022-12-02T17:16:33.019Z,92064.44
2022-12-02T17:18:59.732Z,92072.53
2022-12-02T17:21:26.423Z,92072.22
2022-12-02T17:23:53.024Z,92082.19
2022-12-02T17:26:19.742Z,92086.63
2022-12-02T17:28:46.466Z,92078.81
2022-12-02T17:31:13.172Z,92080.09
2022-12-02T17:33:39.887Z,92082.47
2022-12-02T17:36:07.314Z,92079.63
2022-12-02T17:38:55.650Z,92086.66
2022-12-02T17:41:23.739Z,92088.47
2022-12-02T17:43:50.332Z,92088.47
2022-12-02T17:46:17.140Z,92092.13
2022-12-02T17:48:44.171Z,92099.94
2022-12-02T17:51:11.221Z,92096.53
2022-12-02T17:53:38.249Z,92094.72
2022-12-02T17:56:05.324Z,92095.25
2022-12-02T17:58:32.252Z,92089.78
2022-12-02T18:00:58.997Z,92094.47
2022-12-02T18:03:25.770Z,92085.88
2022-12-02T18:05:52.403Z,92086.38
2022-12-02T18:08:20.249Z,92096.81
2022-12-02T18:10:47.381Z,92096.81
2022-12-02T18:13:14.151Z,92099.19
2022-12-02T18:15:40.801Z,92095.25
2022-12-02T18:18:07.394Z,92094.75
2022-12-02T18:20:34.213Z,92095.25
2022-12-02T18:23:00.915Z,92099.94
2022-12-02T18:25:27.594Z,92098.91
2022-12-02T18:27:54.204Z,92098.38
2022-12-02T18:30:20.835Z,92097.84
2022-12-02T18:32:47.514Z,92098.13
2022-12-02T18:35:14.542Z,92099.41
2022-12-02T18:37:41.118Z,92102.34
2022-12-02T18:40:08.383Z,92094.22
2022-12-02T18:42:35.092Z,92102.59
2022-12-02T18:45:01.790Z,92102.84
2022-12-02T18:47:28.453Z,92103.31
2022-12-02T18:49:55.214Z,92115.59
2022-12-02T18:52:21.940Z,92110.66
2022-12-02T18:54:48.664Z,92119.25
2022-12-02T18:57:15.429Z,92114.03
2022-12-02T18:59:42.044Z,92116.13
2022-12-02T19:02:09.934Z,92123.41
2022-12-02T19:04:36.755Z,92127.59
2022-12-02T19:07:03.477Z,92132.31
2022-12-02T19:09:30.104Z,92122.66
2022-12-02T19:11:56.718Z,92134.41
2022-12-02T19:14:23.450Z,92138.53
2022-12-02T19:16:50.133Z,92130.69
2022-12-02T19:19:17.037Z,92142.66
2022-12-02T19:21:43.711Z,92137.47
2022-12-02T19:24:10.346Z,92139.59
2022-12-02T19:26:37.020Z,92145.06
2022-12-02T19:29:03.710Z,92144.28
2022-12-02T19:31:32.021Z,92143.22
2022-12-02T19:33:58.721Z,92153.66
2022-12-02T19:36:25.327Z,92161.22
2022-12-02T19:38:52.004Z,92157.84
2022-12-02T19:41:18.806Z,92154.69
2022-12-02T19:43:45.380Z,92157.84
2022-12-02T19:46:12.195Z,92150.03
2022-12-02T19:48:39.220Z,92148.69
2022-12-02T19:51:05.888Z,92146.38
2022-12-02T19:53:32.587Z,92148.19
2022-12-02T19:55:59.200Z,92159.09
2022-12-02T19:58:26.130Z,92153.94
2022-12-02T20:00:52.940Z,92149.50
2022-12-02T20:03:19.754Z,92150.78
2022-12-02T20:05:46.437Z,92142.66
2022-12-02T20:08:13.212Z,92142.91
2022-12-02T20:10:40.076Z,92145.78
2022-12-02T20:13:06.753Z,92143.44
2022-12-02T20:15:33.407Z,92150.47
2022-12-02T20:17:59.986Z,92156.19
2022-12-02T20:20:26.699Z,92151.50
2022-12-02T20:22:54.721Z,92150.97
2022-12-02T20:25:21.413Z,92152.28
2022-12-02T20:27:54.001Z,92151.25
2022-12-02T20:30:21.250Z,92148.38
2022-12-02T20:32:48.019Z,92146.31
2022-12-02T20:35:14.797Z,92146.56
2022-12-02T20:37:41.419Z,92137.41
2022-12-02T20:40:09.310Z,92144.41
2022-12-02T20:42:36.270Z,92142.38
2022-12-02T20:45:03.812Z,92141.59
2022-12-02T20:47:30.552Z,92147.34
2022-12-02T20:49:57.138Z,92141.09
2022-12-02T20:52:24.016Z,92141.91
2022-12-02T20:54:51.095Z,92148.66
2022-12-02T20:57:18.079Z,92155.66
2022-12-02T20:59:44.768Z,92145.47
2022-12-02T21:02:11.725Z,92147.59
2022-12-02T21:04:38.761Z,92143.19
2022-12-02T21:07:09.469Z,92138.19
2022-12-02T21:09:36.844Z,92144.75
2022-12-02T21:12:03.433Z,92147.34
2022-12-02T21:14:30.116Z,92148.66
2022-12-02T21:16:56.803Z,92152.56
2022-12-02T21:19:23.492Z,92148.38
2022-12-02T21:21:50.122Z,92151.72
2022-12-02T21:24:16.801Z,92152.50
2022-12-02T21:26:43.588Z,92159.31
2022-12-02T21:29:10.390Z,92159.31
2022-12-02T21:31:37.849Z,92154.09
2022-12-02T21:34:05.180Z,92147.06
2022-12-02T21:36:32.031Z,92153.06
2022-12-02T21:38:58.664Z,92159.59
2022-12-02T21:41:25.472Z,92146.53
2022-12-02T21:43:52.289Z,92151.50
2022-12-02T21:46:19.005Z,92152.25
2022-12-02T21:48:45.725Z,92157.22
2022-12-02T21:51:12.425Z,92162.16
2022-12-02T21:53:39.090Z,92159.25
2022-12-02T21:56:05.950Z,92154.09
2022-12-02T21:58:32.729Z,92152.28
2022-12-02T22:01:18.146Z,92155.91
2022-12-02T22:03:44.863Z,92155.09
2022-12-02T22:06:11.545Z,92165.47
2022-12-02T22:08:38.347Z,92167.81
2022-12-02T22:11:05.142Z,92155.59
2022-12-02T22:13:31.869Z,92165.22
2022-12-02T22:15:58.610Z,92166.00
2022-12-02T22:18:25.345Z,92162.06
2022-12-02T22:20:52.008Z,92159.72
2022-12-02T22:23:18.770Z,92165.09
2022-12-02T22:25:45.404Z,92162.22
2022-12-02T22:28:12.118Z,92159.38
2022-12-02T22:30:38.845Z,92167.47
2022-12-02T22:33:05.604Z,92175.31
2022-12-02T22:35:32.313Z,92166.97
2022-12-02T22:37:58.973Z,92163.09
2022-12-02T22:40:25.654Z,92156.00
2022-12-02T22:42:52.344Z,92153.19
2022-12-02T22:45:19.076Z,92166.06
2022-12-02T22:47:45.689Z,92152.31
2022-12-02T22:50:12.398Z,92160.16
2022-12-02T22:52:39.285Z,92157.28
2022-12-02T22:55:06.400Z,92161.56
2022-12-02T22:57:33.454Z,92157.72
2022-12-02T23:00:00.084Z,92166.31
2022-12-02T23:02:26.805Z,92154.69
2022-12-02T23:04:53.666Z,92157.09
2022-12-02T23:07:20.664Z,92154.38
2022-12-02T23:09:47.281Z,92165.28
2022-12-02T23:12:13.983Z,92161.66
2022-12-02T23:14:40.867Z,92158.72
2022-12-02T23:17:07.719Z,92166.72
2022-12-02T23:19:34.414Z,92165.94
2022-12-02T23:22:01.064Z,92156.66
2022-12-02T23:24:27.662Z,92155.31
2022-12-02T23:26:54.326Z,92159.00
2022-12-02T23:29:20.956Z,92156.13
2022-12-02T23:31:47.519Z,92153.31
2022-12-02T23:34:15.402Z,92156.88
2022-12-02T23:36:42.130Z,92160.28
2022-12-02T23:39:08.759Z,92154.69
2022-12-02T23:41:35.370Z,92161.16
2022-12-02T23:44:02.005Z,92157.25
2022-12-02T23:46:28.705Z,92154.06
2022-12-02T23:48:55.398Z,92153.22
2022-12-02T23:51:26.813Z,92147.13
2022-12-02T23:53:53.962Z,92153.47
2022-12-02T23:56:20.762Z,92146.50
2022-12-02T23:58:47.604Z,92156.09
